Airport View

Enter AWOS ICAO identifier for current METAR.

ex. KFNL

KLNL 310335Z AUTO 00000KT 10SM CLR 02/01 A3030 RMK AO2 T00170006

31 May 2020 03:55

Frequency: 119.525

Phone: 715-547-6313

Other Area AWOS: KEGV - KARV - KD25 - KRHI

TAF KRHI 302324Z 3100/3124 33008KT P6SM SKC FM310100 VRB03KT P6SM SKC FM311600 27007KT P6SM SKC